createdAt,value
2022-12-11T00:01:21.243Z,-1.10
2022-12-11T00:03:48.431Z,-1.10
2022-12-11T00:06:16.861Z,-1.00
2022-12-11T00:08:43.979Z,-1.00
2022-12-11T00:11:14.777Z,-1.00
2022-12-11T00:13:42.005Z,-0.90
2022-12-11T00:16:08.855Z,-0.90
2022-12-11T00:18:35.929Z,-0.90
2022-12-11T00:21:07.123Z,-1.00
2022-12-11T00:23:37.161Z,-1.00
2022-12-11T00:26:08.091Z,-1.00
2022-12-11T00:28:35.175Z,-1.10
2022-12-11T00:31:05.911Z,-1.10
2022-12-11T00:33:33.863Z,-1.10
2022-12-11T00:36:00.663Z,-1.10
2022-12-11T00:38:27.500Z,-1.10
2022-12-11T00:40:58.060Z,-1.10
2022-12-11T00:43:24.863Z,-1.10
2022-12-11T00:45:51.598Z,-1.10
2022-12-11T00:48:18.346Z,-1.10
2022-12-11T00:50:45.070Z,-1.10
2022-12-11T00:53:11.802Z,-1.10
2022-12-11T00:55:39.637Z,-1.10
2022-12-11T00:58:06.915Z,-1.20
2022-12-11T01:00:34.253Z,-1.20
2022-12-11T01:03:00.997Z,-1.30
2022-12-11T01:05:27.853Z,-1.20
2022-12-11T01:07:54.568Z,-1.20
2022-12-11T01:10:24.330Z,-1.20
2022-12-11T01:12:53.890Z,-1.20
2022-12-11T01:15:22.956Z,-1.20
2022-12-11T01:17:50.256Z,-1.20
2022-12-11T01:20:19.284Z,-1.20
2022-12-11T01:22:46.065Z,-1.10
2022-12-11T01:25:13.215Z,-1.10
2022-12-11T01:27:40.261Z,-1.00
2022-12-11T01:30:08.465Z,-1.00
2022-12-11T01:32:35.687Z,-1.10
2022-12-11T01:35:06.314Z,-1.10
2022-12-11T01:37:33.186Z,-1.10
2022-12-11T01:40:00.469Z,-1.10
2022-12-11T01:42:29.476Z,-1.10
2022-12-11T01:45:14.797Z,-1.10
2022-12-11T01:47:41.461Z,-1.10
2022-12-11T01:50:08.361Z,-1.10
2022-12-11T01:52:35.102Z,-1.10
2022-12-11T01:55:02.032Z,-1.20
2022-12-11T01:57:28.994Z,-1.20
2022-12-11T01:59:56.007Z,-1.20
2022-12-11T02:02:24.838Z,-1.20
2022-12-11T02:04:51.726Z,-1.20
2022-12-11T02:07:18.443Z,-1.20
2022-12-11T02:09:46.135Z,-1.20
2022-12-11T02:12:26.805Z,-1.20
2022-12-11T02:15:13.309Z,-1.20
2022-12-11T02:17:58.970Z,-1.20
2022-12-11T02:20:44.081Z,-1.20
2022-12-11T02:23:32.768Z,-1.20
2022-12-11T02:26:03.942Z,-1.20
2022-12-11T02:28:37.547Z,-1.10
2022-12-11T02:31:07.337Z,-1.10
2022-12-11T02:33:37.242Z,-1.10
2022-12-11T02:36:06.172Z,-1.10
2022-12-11T02:38:34.922Z,-1.10
2022-12-11T02:41:02.839Z,-1.10
2022-12-11T02:43:31.363Z,-1.10
2022-12-11T02:45:59.091Z,-1.00
2022-12-11T02:48:25.975Z,-1.00
2022-12-11T02:50:55.574Z,-1.00
2022-12-11T02:53:24.523Z,-1.00
2022-12-11T02:55:54.530Z,-1.00
2022-12-11T02:58:23.638Z,-1.10
2022-12-11T03:00:50.331Z,-1.10
2022-12-11T03:03:17.133Z,-1.00
2022-12-11T03:05:43.877Z,-1.00
2022-12-11T03:08:11.158Z,-1.00
2022-12-11T03:10:38.132Z,-1.00
2022-12-11T03:13:05.146Z,-0.90
2022-12-11T03:15:36.288Z,-0.90
2022-12-11T03:18:10.077Z,-0.90
2022-12-11T03:20:38.892Z,-0.90
2022-12-11T03:23:08.591Z,-0.90
2022-12-11T03:25:42.024Z,-0.90
2022-12-11T03:28:16.064Z,-0.80
2022-12-11T03:30:43.957Z,-0.70
2022-12-11T03:33:13.637Z,-0.70
2022-12-11T03:35:41.778Z,-0.70
2022-12-11T03:38:09.981Z,-0.70
2022-12-11T03:40:38.154Z,-0.70
2022-12-11T03:43:05.310Z,-0.70
2022-12-11T03:45:32.368Z,-0.70
2022-12-11T03:48:00.054Z,-0.70
2022-12-11T03:50:28.430Z,-0.70
2022-12-11T03:52:55.489Z,-0.70
2022-12-11T03:55:22.652Z,-0.70
2022-12-11T03:57:49.534Z,-0.80
2022-12-11T04:00:18.704Z,-0.70
2022-12-11T04:03:09.652Z,-0.60
2022-12-11T04:05:40.958Z,-0.60
2022-12-11T04:08:07.711Z,-0.60
2022-12-11T04:10:34.441Z,-0.60
2022-12-11T04:13:01.116Z,-0.60
2022-12-11T04:15:27.850Z,-0.60
2022-12-11T04:18:23.872Z,-0.60
2022-12-11T04:21:11.510Z,-0.60
2022-12-11T04:23:56.800Z,-0.60
2022-12-11T04:26:23.475Z,-0.60
2022-12-11T04:28:50.528Z,-0.60
2022-12-11T04:31:18.573Z,-0.70
2022-12-11T04:33:45.658Z,-0.70
2022-12-11T04:36:12.922Z,-0.70
2022-12-11T04:38:39.686Z,-0.70
2022-12-11T04:41:15.886Z,-0.70
2022-12-11T04:43:45.127Z,-0.70
2022-12-11T04:46:17.532Z,-0.70
2022-12-11T04:48:44.718Z,-0.70
2022-12-11T04:51:11.560Z,-0.70
2022-12-11T04:53:38.626Z,-0.70
2022-12-11T04:56:06.257Z,-0.70
2022-12-11T04:58:32.971Z,-0.70
2022-12-11T05:00:59.819Z,-0.70
2022-12-11T05:03:26.675Z,-0.70
2022-12-11T05:05:53.687Z,-0.80
2022-12-11T05:08:21.223Z,-0.70
2022-12-11T05:11:01.330Z,-0.70
2022-12-11T05:13:28.684Z,-0.70
2022-12-11T05:15:55.689Z,-0.70
2022-12-11T05:18:22.429Z,-0.70
2022-12-11T05:20:59.534Z,-0.70
2022-12-11T05:23:26.517Z,-0.70
2022-12-11T05:25:54.898Z,-0.60
2022-12-11T05:28:22.676Z,-0.60
2022-12-11T05:30:49.383Z,-0.60
2022-12-11T05:33:16.112Z,-0.60
2022-12-11T05:35:46.807Z,-0.60
2022-12-11T05:38:13.565Z,-0.60
2022-12-11T05:40:40.564Z,-0.50
2022-12-11T05:43:07.366Z,-0.60
2022-12-11T05:45:34.109Z,-0.60
2022-12-11T05:48:00.961Z,-0.60
2022-12-11T05:50:27.798Z,-0.60
2022-12-11T05:52:54.516Z,-0.70
2022-12-11T05:55:21.287Z,-0.70
2022-12-11T05:57:47.975Z,-0.60
2022-12-11T06:00:14.679Z,-0.60
2022-12-11T06:02:41.560Z,-0.60
2022-12-11T06:05:08.411Z,-0.50
2022-12-11T06:07:35.264Z,-0.60
2022-12-11T06:10:01.931Z,-0.60
2022-12-11T06:12:29.889Z,-0.60
2022-12-11T06:14:56.700Z,-0.60
2022-12-11T06:17:23.364Z,-0.60
2022-12-11T06:19:50.073Z,-0.50
2022-12-11T06:22:16.754Z,-0.60
2022-12-11T06:24:43.415Z,-0.60
2022-12-11T06:27:10.311Z,-0.60
2022-12-11T06:29:36.998Z,-0.60
2022-12-11T06:32:03.796Z,-0.60
2022-12-11T06:34:30.513Z,-0.50
2022-12-11T06:36:57.266Z,-0.60
2022-12-11T06:39:24.027Z,-0.60
2022-12-11T06:41:50.718Z,-0.60
2022-12-11T06:44:17.467Z,-0.70
2022-12-11T06:46:44.183Z,-0.70
2022-12-11T06:49:10.873Z,-0.70
2022-12-11T06:51:37.615Z,-0.60
2022-12-11T06:54:04.460Z,-0.60
2022-12-11T06:56:31.206Z,-0.60
2022-12-11T06:59:00.654Z,-0.60
2022-12-11T07:01:31.185Z,-0.60
2022-12-11T07:03:58.745Z,-0.60
2022-12-11T07:06:26.183Z,-0.60
2022-12-11T07:08:53.147Z,-0.60
2022-12-11T07:11:20.484Z,-0.50
2022-12-11T07:13:47.238Z,-0.50
2022-12-11T07:16:15.335Z,-0.50
2022-12-11T07:18:46.157Z,-0.50
2022-12-11T07:21:13.567Z,-0.50
2022-12-11T07:23:40.475Z,-0.40
2022-12-11T07:26:08.451Z,-0.40
2022-12-11T07:28:35.602Z,-0.40
2022-12-11T07:31:09.363Z,-0.50
2022-12-11T07:33:36.441Z,-0.50
2022-12-11T07:36:06.810Z,-0.50
2022-12-11T07:38:34.113Z,-0.50
2022-12-11T07:41:19.331Z,-0.50
2022-12-11T07:43:52.864Z,-0.50
2022-12-11T07:46:20.828Z,-0.50
2022-12-11T07:48:48.022Z,-0.60
2022-12-11T07:51:17.668Z,-0.50
2022-12-11T07:53:45.320Z,-0.50
2022-12-11T07:56:12.347Z,-0.50
2022-12-11T07:58:39.120Z,-0.50
2022-12-11T08:01:06.638Z,-0.40
2022-12-11T08:03:33.374Z,-0.50
2022-12-11T08:06:00.091Z,-0.50
2022-12-11T08:08:26.828Z,-0.50
2022-12-11T08:10:53.692Z,-0.50
2022-12-11T08:13:20.385Z,-0.50
2022-12-11T08:15:47.093Z,-0.40
2022-12-11T08:18:14.407Z,-0.40
2022-12-11T08:20:41.199Z,-0.30
2022-12-11T08:23:07.854Z,-0.30
2022-12-11T08:25:35.324Z,-0.30
2022-12-11T08:28:02.022Z,-0.30
2022-12-11T08:30:28.719Z,-0.30
2022-12-11T08:32:55.583Z,-0.30
2022-12-11T08:35:22.273Z,-0.30
2022-12-11T08:37:48.948Z,-0.30
2022-12-11T08:40:15.615Z,-0.30
2022-12-11T08:42:42.513Z,-0.30
2022-12-11T08:45:10.103Z,-0.30
2022-12-11T08:47:36.943Z,-0.40
2022-12-11T08:50:03.932Z,-0.40
2022-12-11T08:52:31.495Z,-0.40
2022-12-11T08:54:58.422Z,-0.40
2022-12-11T08:57:25.071Z,-0.40
2022-12-11T08:59:51.755Z,-0.40
2022-12-11T09:02:18.470Z,-0.40
2022-12-11T09:04:45.216Z,-0.40
2022-12-11T09:07:12.515Z,-0.30
2022-12-11T09:09:39.473Z,-0.30
2022-12-11T09:12:06.472Z,-0.30
2022-12-11T09:14:33.266Z,-0.20
2022-12-11T09:17:00.189Z,-0.20
2022-12-11T09:19:32.023Z,-0.20
2022-12-11T09:21:59.230Z,-0.20
2022-12-11T09:24:25.970Z,-0.20
2022-12-11T09:26:52.708Z,-0.10
2022-12-11T09:29:19.405Z,-0.10
2022-12-11T09:31:46.927Z,-0.10
2022-12-11T09:34:13.796Z,-0.10
2022-12-11T09:36:40.993Z,0.00
2022-12-11T09:39:09.099Z,-0.10
2022-12-11T09:41:37.642Z,-0.10
2022-12-11T09:44:16.338Z,-0.10
2022-12-11T09:46:43.488Z,-0.10
2022-12-11T09:49:33.629Z,0.00
2022-12-11T09:52:06.329Z,0.00
2022-12-11T09:54:33.309Z,0.10
2022-12-11T09:57:05.146Z,0.20
2022-12-11T09:59:35.904Z,0.20
2022-12-11T10:02:21.036Z,0.20
2022-12-11T10:04:50.844Z,0.20
2022-12-11T10:07:36.413Z,0.30
2022-12-11T10:10:09.171Z,0.30
2022-12-11T10:12:35.889Z,0.30
2022-12-11T10:15:12.499Z,0.30
2022-12-11T10:17:40.286Z,0.30
2022-12-11T10:20:22.241Z,0.30
2022-12-11T10:22:50.246Z,0.40
2022-12-11T10:25:22.048Z,0.40
2022-12-11T10:27:48.750Z,0.50
2022-12-11T10:30:18.259Z,0.50
2022-12-11T10:32:45.065Z,0.40
2022-12-11T10:35:18.454Z,0.50
2022-12-11T10:37:45.234Z,0.50
2022-12-11T10:40:12.522Z,0.50
2022-12-11T10:42:44.173Z,0.50
2022-12-11T10:45:16.087Z,0.50
2022-12-11T10:47:42.811Z,0.40
2022-12-11T10:50:22.198Z,0.40
2022-12-11T10:52:48.939Z,0.40
2022-12-11T10:55:24.491Z,0.40
2022-12-11T10:57:55.605Z,0.40
2022-12-11T11:00:41.552Z,0.40
2022-12-11T11:03:20.361Z,0.40
2022-12-11T11:05:49.508Z,0.40
2022-12-11T11:08:21.588Z,0.30
2022-12-11T11:10:56.657Z,0.30
2022-12-11T11:13:24.566Z,0.30
2022-12-11T11:16:13.091Z,0.20
2022-12-11T11:18:40.777Z,0.20
2022-12-11T11:21:15.453Z,0.20
2022-12-11T11:23:46.282Z,0.40
2022-12-11T11:26:15.902Z,0.40
2022-12-11T11:28:46.889Z,0.60
2022-12-11T11:31:15.196Z,0.60
2022-12-11T11:34:00.332Z,0.60
2022-12-11T11:36:28.275Z,0.60
2022-12-11T11:39:13.815Z,0.50
2022-12-11T11:41:47.908Z,0.40
2022-12-11T11:44:18.677Z,0.40
2022-12-11T11:47:00.967Z,0.40
2022-12-11T11:49:43.111Z,0.50
2022-12-11T11:52:19.668Z,0.50
2022-12-11T11:54:49.626Z,0.60
2022-12-11T11:57:28.847Z,0.60
2022-12-11T11:59:58.183Z,0.60
2022-12-11T12:02:25.355Z,0.60
2022-12-11T12:04:53.392Z,0.70
2022-12-11T12:07:30.092Z,0.70
2022-12-11T12:10:10.883Z,0.80
2022-12-11T12:12:47.043Z,0.70
2022-12-11T12:15:26.012Z,0.60
2022-12-11T12:17:56.204Z,0.50
2022-12-11T12:20:38.414Z,0.50
2022-12-11T12:23:36.314Z,0.40
2022-12-11T12:26:11.300Z,0.30
2022-12-11T12:28:56.917Z,0.30
2022-12-11T12:31:29.744Z,0.30
2022-12-11T12:34:10.159Z,0.30
2022-12-11T12:36:37.629Z,0.30
2022-12-11T12:39:23.018Z,0.30
2022-12-11T12:41:55.983Z,0.30
2022-12-11T12:44:24.064Z,0.30
2022-12-11T12:46:57.194Z,0.30
2022-12-11T12:49:30.768Z,0.30
2022-12-11T12:51:58.356Z,0.30
2022-12-11T12:54:27.736Z,0.30
2022-12-11T12:56:55.476Z,0.40
2022-12-11T12:59:23.618Z,0.40
2022-12-11T13:01:52.536Z,0.40
2022-12-11T13:05:04.365Z,0.40
2022-12-11T13:07:32.616Z,0.40
2022-12-11T13:10:21.961Z,0.50
2022-12-11T13:12:48.741Z,0.50
2022-12-11T13:15:26.257Z,0.50
2022-12-11T13:17:53.467Z,0.40
2022-12-11T13:20:22.058Z,0.40
2022-12-11T13:22:50.893Z,0.40
2022-12-11T13:25:22.408Z,0.40
2022-12-11T13:27:49.944Z,0.40
2022-12-11T13:30:19.574Z,0.40
2022-12-11T13:32:57.178Z,0.40
2022-12-11T13:35:24.462Z,0.30
2022-12-11T13:37:52.099Z,0.30
2022-12-11T13:40:20.359Z,0.40
2022-12-11T13:42:53.052Z,0.40
2022-12-11T13:45:22.972Z,0.40
2022-12-11T13:47:50.246Z,0.50
2022-12-11T13:50:43.633Z,0.50
2022-12-11T13:53:15.616Z,0.50
2022-12-11T13:55:42.648Z,0.50
2022-12-11T13:58:19.839Z,0.50
2022-12-11T14:01:01.957Z,0.50
2022-12-11T14:03:30.484Z,0.50
2022-12-11T14:05:57.384Z,0.60
2022-12-11T14:08:30.011Z,0.60
2022-12-11T14:10:56.823Z,0.60
2022-12-11T14:13:25.795Z,0.50
2022-12-11T14:15:53.298Z,0.50
2022-12-11T14:18:22.010Z,0.50
2022-12-11T14:20:54.180Z,0.50
2022-12-11T14:23:24.581Z,0.50
2022-12-11T14:25:55.540Z,0.40
2022-12-11T14:28:23.387Z,0.40
2022-12-11T14:30:51.064Z,0.40
2022-12-11T14:33:18.937Z,0.40
2022-12-11T14:35:46.660Z,0.40
2022-12-11T14:38:16.172Z,0.30
2022-12-11T14:40:45.045Z,0.30
2022-12-11T14:43:13.712Z,0.30
2022-12-11T14:45:42.606Z,0.20
2022-12-11T14:48:15.137Z,0.20
2022-12-11T14:50:44.287Z,0.20
2022-12-11T14:53:15.463Z,0.20
2022-12-11T14:55:45.092Z,0.30
2022-12-11T14:58:21.245Z,0.30
2022-12-11T15:00:58.838Z,0.30
2022-12-11T15:03:30.129Z,0.30
2022-12-11T15:05:57.879Z,0.40
2022-12-11T15:08:28.824Z,0.40
2022-12-11T15:11:15.455Z,0.30
2022-12-11T15:13:56.166Z,0.30
2022-12-11T15:16:24.322Z,0.30
2022-12-11T15:18:52.197Z,0.30
2022-12-11T15:21:27.169Z,0.30
2022-12-11T15:23:58.337Z,0.30
2022-12-11T15:26:38.790Z,0.30
2022-12-11T15:29:06.721Z,0.40
2022-12-11T15:31:35.059Z,0.50
2022-12-11T15:34:02.036Z,0.50
2022-12-11T15:36:34.754Z,0.50
2022-12-11T15:39:02.076Z,0.50
2022-12-11T15:41:33.297Z,0.40
2022-12-11T15:44:01.434Z,0.40
2022-12-11T15:46:28.191Z,0.50
2022-12-11T15:48:56.269Z,0.50
2022-12-11T15:51:23.368Z,0.50
2022-12-11T15:53:50.222Z,0.50
2022-12-11T15:56:16.910Z,0.50
2022-12-11T15:58:47.416Z,0.50
2022-12-11T16:01:14.232Z,0.40
2022-12-11T16:03:41.004Z,0.50
2022-12-11T16:06:10.629Z,0.50
2022-12-11T16:08:37.361Z,0.50
2022-12-11T16:11:04.100Z,0.50
2022-12-11T16:13:30.809Z,0.50
2022-12-11T16:15:58.417Z,0.40
2022-12-11T16:18:26.451Z,0.40
2022-12-11T16:20:53.265Z,0.50
2022-12-11T16:23:20.386Z,0.50
2022-12-11T16:25:50.169Z,0.50
2022-12-11T16:28:18.136Z,0.40
2022-12-11T16:30:45.339Z,0.40
2022-12-11T16:33:13.354Z,0.50
2022-12-11T16:35:41.366Z,0.50
2022-12-11T16:38:08.397Z,0.50
2022-12-11T16:40:35.132Z,0.40
2022-12-11T16:43:02.883Z,0.50
2022-12-11T16:45:29.684Z,0.40
2022-12-11T16:47:56.462Z,0.40
2022-12-11T16:50:23.693Z,0.40
2022-12-11T16:52:50.384Z,0.40
2022-12-11T16:55:21.113Z,0.40
2022-12-11T16:57:48.088Z,0.40
2022-12-11T17:00:15.424Z,0.40
2022-12-11T17:02:43.224Z,0.40
2022-12-11T17:05:10.582Z,0.40
2022-12-11T17:07:37.635Z,0.40
2022-12-11T17:10:04.647Z,0.40
2022-12-11T17:12:31.453Z,0.40
2022-12-11T17:14:58.261Z,0.40
2022-12-11T17:17:25.051Z,0.40
2022-12-11T17:19:51.849Z,0.40
2022-12-11T17:22:18.601Z,0.40
2022-12-11T17:24:45.342Z,0.40
2022-12-11T17:27:12.097Z,0.40
2022-12-11T17:29:39.682Z,0.40
2022-12-11T17:32:06.588Z,0.40
2022-12-11T17:34:38.181Z,0.50
2022-12-11T17:37:06.002Z,0.40
2022-12-11T17:39:32.846Z,0.40
2022-12-11T17:41:59.537Z,0.40
2022-12-11T17:44:26.795Z,0.40
2022-12-11T17:46:53.736Z,0.40
2022-12-11T17:49:20.538Z,0.40
2022-12-11T17:51:50.450Z,0.40
2022-12-11T17:54:17.129Z,0.40
2022-12-11T17:56:43.927Z,0.40
2022-12-11T17:59:10.705Z,0.40
2022-12-11T18:01:37.777Z,0.40
2022-12-11T18:04:04.580Z,0.40
2022-12-11T18:06:31.357Z,0.40
2022-12-11T18:08:58.305Z,0.40
2022-12-11T18:11:25.133Z,0.40
2022-12-11T18:13:52.961Z,0.40
2022-12-11T18:16:21.645Z,0.40
2022-12-11T18:18:49.208Z,0.30
2022-12-11T18:21:17.267Z,0.40
2022-12-11T18:23:47.303Z,0.40
2022-12-11T18:26:14.703Z,0.40
2022-12-11T18:28:41.819Z,0.30
2022-12-11T18:31:09.766Z,0.30
2022-12-11T18:33:37.475Z,0.30
2022-12-11T18:36:05.373Z,0.30
2022-12-11T18:38:32.053Z,0.20
2022-12-11T18:40:58.762Z,0.20
2022-12-11T18:43:25.763Z,0.20
2022-12-11T18:45:52.760Z,0.20
2022-12-11T18:48:19.456Z,0.10
2022-12-11T18:50:47.375Z,0.10
2022-12-11T18:53:17.055Z,0.00
2022-12-11T18:55:47.873Z,0.00
2022-12-11T18:58:16.260Z,0.10
2022-12-11T19:00:43.392Z,0.00
2022-12-11T19:03:10.117Z,0.00
2022-12-11T19:05:37.095Z,-0.10
2022-12-11T19:08:03.999Z,0.00
2022-12-11T19:10:30.716Z,0.00
2022-12-11T19:12:57.468Z,0.00
2022-12-11T19:15:24.627Z,0.00
2022-12-11T19:17:51.598Z,0.00
2022-12-11T19:20:47.426Z,0.00
2022-12-11T19:23:06.242Z,0.00
2022-12-11T19:25:33.171Z,0.00
2022-12-11T19:27:59.910Z,0.00
2022-12-11T19:30:26.659Z,0.00
2022-12-11T19:32:53.378Z,-0.10
2022-12-11T19:35:20.117Z,0.00
2022-12-11T19:37:46.897Z,0.00
2022-12-11T19:40:14.633Z,0.00
2022-12-11T19:42:41.610Z,-0.10
2022-12-11T19:45:08.469Z,-0.10
2022-12-11T19:47:35.277Z,0.00
2022-12-11T19:50:01.969Z,0.00
2022-12-11T19:52:28.738Z,0.10
2022-12-11T19:54:55.424Z,0.10
2022-12-11T19:57:22.135Z,0.10
2022-12-11T19:59:53.889Z,0.00
2022-12-11T20:02:23.743Z,0.00
2022-12-11T20:04:50.470Z,0.00
2022-12-11T20:07:17.354Z,0.00
2022-12-11T20:09:44.048Z,-0.10
2022-12-11T20:12:10.797Z,-0.10
2022-12-11T20:14:37.704Z,-0.10
2022-12-11T20:17:14.213Z,-0.10
2022-12-11T20:19:42.131Z,-0.10
2022-12-11T20:22:09.272Z,0.00
2022-12-11T20:24:36.082Z,0.00
2022-12-11T20:27:03.018Z,0.00
2022-12-11T20:29:29.706Z,0.10
2022-12-11T20:31:56.596Z,0.00
2022-12-11T20:34:23.333Z,0.00
2022-12-11T20:36:51.752Z,0.00
2022-12-11T20:39:18.451Z,0.00
2022-12-11T20:41:45.174Z,0.00
2022-12-11T20:44:11.890Z,0.10
2022-12-11T20:46:38.619Z,0.00
2022-12-11T20:49:09.841Z,0.00
2022-12-11T20:51:36.602Z,0.00
2022-12-11T20:54:03.377Z,0.00
2022-12-11T20:56:30.453Z,0.00
2022-12-11T20:58:57.847Z,-0.10
2022-12-11T21:01:25.792Z,-0.10
2022-12-11T21:03:53.538Z,-0.10
2022-12-11T21:06:23.146Z,-0.10
2022-12-11T21:08:49.909Z,-0.10
2022-12-11T21:11:18.009Z,-0.10
2022-12-11T21:13:44.749Z,-0.10
2022-12-11T21:16:11.604Z,-0.10
2022-12-11T21:18:39.755Z,-0.10
2022-12-11T21:21:06.774Z,0.00
2022-12-11T21:23:33.594Z,0.00
2022-12-11T21:26:00.540Z,0.00
2022-12-11T21:28:30.593Z,0.00
2022-12-11T21:31:01.252Z,0.00
2022-12-11T21:33:28.072Z,0.00
2022-12-11T21:35:55.799Z,0.00
2022-12-11T21:38:22.985Z,0.00
2022-12-11T21:40:49.999Z,0.00
2022-12-11T21:43:16.681Z,0.00
2022-12-11T21:48:30.252Z,0.00
2022-12-11T21:51:04.185Z,0.00
2022-12-11T21:53:30.908Z,0.00
2022-12-11T21:55:57.871Z,0.00
2022-12-11T21:58:24.548Z,0.00
2022-12-11T22:00:51.270Z,0.00
2022-12-11T22:03:18.339Z,0.00
2022-12-11T22:05:45.041Z,0.00
2022-12-11T22:08:12.017Z,0.10
2022-12-11T22:10:38.855Z,0.10
2022-12-11T22:13:05.634Z,0.10
2022-12-11T22:15:32.403Z,0.10
2022-12-11T22:17:59.085Z,0.10
2022-12-11T22:20:25.852Z,0.10
2022-12-11T22:22:52.646Z,0.10
2022-12-11T22:25:19.382Z,0.00
2022-12-11T22:27:46.077Z,0.00
2022-12-11T22:30:12.931Z,0.10
2022-12-11T22:32:40.329Z,0.10
2022-12-11T22:35:07.255Z,0.10
2022-12-11T22:37:33.995Z,0.10
2022-12-11T22:40:01.168Z,0.10
2022-12-11T22:42:27.837Z,0.10
2022-12-11T22:44:54.532Z,0.10
2022-12-11T22:47:21.304Z,0.00
2022-12-11T22:49:50.050Z,0.00
2022-12-11T22:52:16.740Z,0.00
2022-12-11T22:54:43.542Z,0.00
2022-12-11T22:57:10.326Z,0.00
2022-12-11T22:59:37.025Z,0.00
2022-12-11T23:02:03.787Z,0.00
2022-12-11T23:04:30.732Z,0.00
2022-12-11T23:06:57.836Z,0.00
2022-12-11T23:09:24.617Z,0.00
2022-12-11T23:11:51.725Z,0.00
2022-12-11T23:14:18.840Z,0.00
2022-12-11T23:16:45.620Z,0.00
2022-12-11T23:19:12.655Z,0.00
2022-12-11T23:21:39.422Z,0.00
2022-12-11T23:24:06.740Z,0.10
2022-12-11T23:26:33.580Z,0.10
2022-12-11T23:29:02.025Z,0.10
2022-12-11T23:31:30.391Z,0.10
2022-12-11T23:33:57.541Z,0.20
2022-12-11T23:36:25.331Z,0.20
2022-12-11T23:38:54.800Z,0.20
2022-12-11T23:41:22.210Z,0.20
2022-12-11T23:43:48.891Z,0.20
2022-12-11T23:46:20.047Z,0.20
2022-12-11T23:48:47.095Z,0.20
2022-12-11T23:51:14.842Z,0.30
2022-12-11T23:53:42.101Z,0.30
2022-12-11T23:56:11.023Z,0.20
2022-12-11T23:58:38.179Z,0.20
